WetterOnline ( http://www.wetteronline.de )

Wetter aktuell Marnitz

Aktuelles Wetter: Marnitz (87m)

6-stündlich | Neueste Meldungen
Ortszeit Temperatur Wetter
Sa, 18.08. 14:00 24.3° C wolkig
Sa, 18.08. 8:00 14.8° C leicht bewölkt
Sa, 18.08. 2:00 13.8° C leicht bewölkt
Fr, 17.08. 20:00 20.6° C bewölkt
Fr, 17.08. 14:00 24.7° C bewölkt
Fr, 17.08. 8:00 18.7° C wolkig
Fr, 17.08. 2:00 16.3° C leicht bewölkt
Do, 16.08. 20:00 26.2° C leicht bewölkt
Ortszeit Temperatur Wetter
Sa, 18.08. 19:30 23.9° C wolkig
Sa, 18.08. 19:20 23.9° C wolkig
Sa, 18.08. 19:10 24.2° C wolkig
Sa, 18.08. 19:00 24.8° C wolkig
Sa, 18.08. 18:50 24.8° C wolkig
Sa, 18.08. 18:40 25.2° C wolkig
Sa, 18.08. 18:30 25.6° C wolkig
Sa, 18.08. 18:00 25.6° C leicht bewölkt
Sa, 18.08. 17:30 25.5° C wolkig
Sa, 18.08. 17:00 26.4° C fast wolkenlos
Sa, 18.08. 16:30 25.9° C wolkenlos
Ortszeit Relative Feuchte Sichtweite
Sa, 18.08. 14:00 37% 26 km
Sa, 18.08. 8:00 86% 19 km
Sa, 18.08. 2:00 96% 13 km
Fr, 17.08. 20:00 64% 35 km
Fr, 17.08. 14:00 57% 21 km
Fr, 17.08. 8:00 87% 7 km
Fr, 17.08. 2:00 83% 15 km
Do, 16.08. 20:00 42% 30 km
Ortszeit Relative Feuchte Sichtweite
Sa, 18.08. 19:30 38% 35 km
Sa, 18.08. 19:20 38% -
Sa, 18.08. 19:10 37% -
Sa, 18.08. 19:00 36% 35 km
Sa, 18.08. 18:50 36% -
Sa, 18.08. 18:40 34% -
Sa, 18.08. 18:30 33% 35 km
Sa, 18.08. 18:00 33% 30 km
Sa, 18.08. 17:30 32% 35 km
Sa, 18.08. 17:00 31% 30 km
Sa, 18.08. 16:30 31% 35 km
Ortszeit Niederschlagsmenge Niederschlagsart
Sa, 18.08. 14:00 0.0 l/m2 in 6 Std. -
Sa, 18.08. 8:00 0.0 l/m2 in 12 Std. -
Sa, 18.08. 2:00 0.0 l/m2 in 6 Std. -
Fr, 17.08. 20:00 0.0 l/m2 in 12 Std. -
Fr, 17.08. 14:00 0.0 l/m2 in 6 Std. -
Fr, 17.08. 8:00 0.0 l/m2 in 12 Std. -
Fr, 17.08. 2:00 0.0 l/m2 in 6 Std. -
Do, 16.08. 20:00 0.0 l/m2 in 12 Std. -
Ortszeit Niederschlagsmenge Niederschlagsart
Sa, 18.08. 19:30 0.0 l/m2 in 1 Std. -
Sa, 18.08. 19:20 keine Meldung -
Sa, 18.08. 19:10 keine Meldung -
Sa, 18.08. 19:00 0.0 l/m2 in 1 Std. -
Sa, 18.08. 18:50 keine Meldung -
Sa, 18.08. 18:40 keine Meldung -
Sa, 18.08. 18:30 0.0 l/m2 in 1 Std. -
Sa, 18.08. 18:00 0.0 l/m2 in 1 Std. -
Sa, 18.08. 17:30 0.0 l/m2 in 1 Std. -
Sa, 18.08. 17:00 0.0 l/m2 in 1 Std. -
Sa, 18.08. 16:30 0.0 l/m2 in 1 Std. -
Ortszeit Stärke Spitze Richtung
km/h Bft. km/h Grad Sektor
Sa, 18.08. 14:00 13 3 28 250° W
Sa, 18.08. 8:00 0 0 7 - -
Sa, 18.08. 2:00 0 0 22 - -
Fr, 17.08. 20:00 13 3 31 350° N
Fr, 17.08. 14:00 11 2 26 30° NO
Fr, 17.08. 8:00 9 2 19 40° NO
Fr, 17.08. 2:00 7 2 11 200° S
Do, 16.08. 20:00 6 1 33 200° S
Ortszeit Stärke Spitze Richtung
km/h Bft. km/h Grad Sektor
Sa, 18.08. 19:30 7 2 18 300° NW
Sa, 18.08. 19:20 7 2 - 300° NW
Sa, 18.08. 19:10 7 2 - 290° W
Sa, 18.08. 19:00 11 2 25 280° W
Sa, 18.08. 18:50 11 2 - 280° W
Sa, 18.08. 18:40 7 2 - 260° W
Sa, 18.08. 18:30 7 2 25 280° W
Sa, 18.08. 18:00 14 3 25 300° NW
Sa, 18.08. 17:30 13 3 24 260° W
Sa, 18.08. 17:00 13 3 28 270° W
Sa, 18.08. 16:30 11 2 29 240° SW
Ortszeit Untergrenze Bedeckung Gattung
total tief tief mittel hoch
Sa, 18.08. 14:00 1500 m 7/8 4/8 - - -
Sa, 18.08. 8:00 9000 m 7/8 0/8 - - -
Sa, 18.08. 2:00 2400 m 4/8 1/8 - - -
Fr, 17.08. 20:00 5400 m 7/8 7/8 - - -
Fr, 17.08. 14:00 990 m 8/8 7/8 - - -
Fr, 17.08. 8:00 2100 m 6/8 3/8 - - -
Fr, 17.08. 2:00 9000 m 6/8 0/8 - - -
Do, 16.08. 20:00 10500 m 7/8 0/8 - - -
Ortszeit Bedeckungsgrad in Achtel und Wolkenuntergrenze
Sa, 18.08. 19:30 8(8700m) 8(10500m) 8(12000m)
Sa, 18.08. 19:20 8(8700m) 8(10500m) 8(12000m)
Sa, 18.08. 19:10 8(8700m) 8(10500m)
Sa, 18.08. 19:00 6(9000m) 6(9000m) 8(10500m)
Sa, 18.08. 18:50 6(9000m) 6(9000m) 8(10500m)
Sa, 18.08. 18:40 4(9000m) 8(10500m) 8(12000m)
Sa, 18.08. 18:30 6(9000m) 8(10500m) 8(12000m)
Sa, 18.08. 18:00 8(9000m) 8(10500m)
Sa, 18.08. 17:30 4(9000m) 7(10500m) 7(12000m)
Sa, 18.08. 17:00 2(10500m)
Sa, 18.08. 16:30 2(10500m)
Ortszeit Luftdruck NN (hPa) Tendenz (hPa in 3 Std.)
Sa, 18.08. 14:00 1021 - 0,6
Sa, 18.08. 8:00 1021 + 0,5
Sa, 18.08. 2:00 1020 + 1,2
Fr, 17.08. 20:00 1017 + 1,2
Fr, 17.08. 14:00 1016 + 0,3
Fr, 17.08. 8:00 1015 + 1,0
Fr, 17.08. 2:00 1014 0,0
Do, 16.08. 20:00 1014 - 0,8
Ortszeit Luftdruck NN (hPa) Tendenz (hPa in 3 Std.)
Sa, 18.08. 19:30 1019 - 0,2
Sa, 18.08. 19:20 1019 keine Meldung
Sa, 18.08. 19:10 1019 keine Meldung
Sa, 18.08. 19:00 1019 - 0,5
Sa, 18.08. 18:50 1019 keine Meldung
Sa, 18.08. 18:40 1019 keine Meldung
Sa, 18.08. 18:30 1019 - 0,8
Sa, 18.08. 18:00 1019 - 1,0
Sa, 18.08. 17:30 1019 - 1,3
Sa, 18.08. 17:00 1019 - 1,4
Sa, 18.08. 16:30 1020 - 1,3
Ortszeit Schneehöhe (cm)
Sa, 18.08. 14:00 -
Sa, 18.08. 8:00 -
Sa, 18.08. 2:00 -
Fr, 17.08. 20:00 -
Fr, 17.08. 14:00 -
Fr, 17.08. 8:00 -
Fr, 17.08. 2:00 -
Do, 16.08. 20:00 -
Ortszeit Schneehöhe (cm)
Sa, 18.08. 19:30 -
Sa, 18.08. 19:20 -
Sa, 18.08. 19:10 -
Sa, 18.08. 19:00 -
Sa, 18.08. 18:50 -
Sa, 18.08. 18:40 -
Sa, 18.08. 18:30 -
Sa, 18.08. 18:00 -
Sa, 18.08. 17:30 -
Sa, 18.08. 17:00 -
Sa, 18.08. 16:30 -
Link zu dieser Seite / Seite empfehlen

Das Wetter in ...